createdAt,value
2023-05-18T00:02:09.978Z,63.06
2023-05-18T00:05:37.133Z,63.08
2023-05-18T00:09:04.237Z,63.15
2023-05-18T00:12:31.221Z,63.21
2023-05-18T00:15:58.269Z,63.12
2023-05-18T00:19:26.384Z,63.10
2023-05-18T00:22:55.349Z,63.35
2023-05-18T00:26:22.340Z,63.54
2023-05-18T00:29:50.488Z,63.66
2023-05-18T00:33:17.912Z,63.92
2023-05-18T00:36:44.915Z,63.88
2023-05-18T00:40:14.953Z,64.13
2023-05-18T00:43:44.863Z,64.21
2023-05-18T00:47:12.011Z,63.89
2023-05-18T00:50:39.665Z,64.21
2023-05-18T00:54:08.217Z,64.20
2023-05-18T00:57:36.978Z,64.31
2023-05-18T01:01:06.380Z,64.49
2023-05-18T01:04:34.545Z,64.46
2023-05-18T01:08:03.316Z,64.49
2023-05-18T01:11:42.127Z,64.43
2023-05-18T01:15:15.028Z,64.61
2023-05-18T01:18:49.576Z,64.74
2023-05-18T01:22:33.811Z,64.61
2023-05-18T01:26:26.530Z,64.71
2023-05-18T01:29:57.411Z,64.70
2023-05-18T01:33:24.898Z,64.92
2023-05-18T01:36:51.704Z,64.98
2023-05-18T01:40:18.797Z,65.01
2023-05-18T01:43:54.248Z,65.18
2023-05-18T01:47:21.848Z,65.25
2023-05-18T01:50:53.734Z,65.30
2023-05-18T01:54:23.975Z,65.19
2023-05-18T01:57:54.109Z,65.08
2023-05-18T02:01:23.364Z,65.34
2023-05-18T02:04:50.876Z,65.20
2023-05-18T02:08:18.333Z,65.21
2023-05-18T02:11:47.125Z,65.39
2023-05-18T02:15:14.513Z,65.30
2023-05-18T02:18:41.736Z,65.34
2023-05-18T02:22:09.635Z,65.32
2023-05-18T02:25:37.418Z,65.34
2023-05-18T02:29:04.407Z,65.52
2023-05-18T02:32:33.720Z,65.54
2023-05-18T02:36:01.324Z,65.65
2023-05-18T02:39:27.890Z,65.85
2023-05-18T02:42:57.355Z,65.98
2023-05-18T02:46:26.116Z,66.05
2023-05-18T02:49:53.256Z,66.08
2023-05-18T02:53:20.369Z,66.19
2023-05-18T02:56:48.032Z,66.33
2023-05-18T03:00:23.703Z,66.38
2023-05-18T03:03:53.414Z,66.39
2023-05-18T03:07:20.894Z,66.44
2023-05-18T03:10:48.072Z,66.38
2023-05-18T03:14:15.159Z,66.44
2023-05-18T03:17:44.098Z,66.54
2023-05-18T03:21:14.051Z,66.58
2023-05-18T03:24:41.604Z,66.76
2023-05-18T03:28:13.038Z,66.72
2023-05-18T03:31:40.599Z,66.74
2023-05-18T03:35:09.843Z,66.69
2023-05-18T03:38:36.679Z,66.86
2023-05-18T03:42:08.054Z,66.72
2023-05-18T03:45:35.077Z,66.80
2023-05-18T03:49:03.667Z,66.83
2023-05-18T03:52:35.273Z,67.02
2023-05-18T03:56:02.089Z,67.06
2023-05-18T03:59:30.037Z,67.06
2023-05-18T04:02:57.847Z,66.84
2023-05-18T04:06:26.425Z,67.10
2023-05-18T04:09:53.907Z,67.46
2023-05-18T04:13:20.763Z,67.33
2023-05-18T04:16:48.148Z,67.35
2023-05-18T04:20:16.446Z,67.40
2023-05-18T04:23:43.163Z,67.18
2023-05-18T04:27:12.363Z,67.26
2023-05-18T04:30:39.815Z,67.09
2023-05-18T04:34:09.301Z,67.15
2023-05-18T04:37:36.835Z,67.20
2023-05-18T04:41:06.898Z,66.97
2023-05-18T04:44:35.019Z,67.12
2023-05-18T04:48:03.273Z,67.38
2023-05-18T04:51:30.039Z,67.56
2023-05-18T04:54:57.372Z,67.38
2023-05-18T04:58:23.943Z,67.40
2023-05-18T05:01:50.670Z,67.28
2023-05-18T05:05:18.836Z,67.84
2023-05-18T05:08:45.810Z,67.29
2023-05-18T05:12:13.942Z,67.66
2023-05-18T05:15:40.861Z,67.07
2023-05-18T05:19:07.690Z,67.54
2023-05-18T05:22:35.180Z,67.23
2023-05-18T05:26:04.374Z,67.25
2023-05-18T05:29:31.829Z,67.15
2023-05-18T05:33:00.666Z,67.26
2023-05-18T05:36:28.551Z,67.18
2023-05-18T05:39:56.854Z,67.24
2023-05-18T05:43:23.712Z,67.07
2023-05-18T05:46:51.483Z,67.34
2023-05-18T05:50:19.413Z,67.38
2023-05-18T05:53:49.730Z,67.47
2023-05-18T05:57:17.918Z,67.27
2023-05-18T06:00:46.478Z,66.98
2023-05-18T06:04:16.232Z,67.05
2023-05-18T06:07:43.643Z,67.23
2023-05-18T06:11:11.470Z,67.13
2023-05-18T06:14:39.870Z,67.12
2023-05-18T06:18:07.381Z,67.00
2023-05-18T06:21:35.585Z,67.07
2023-05-18T06:25:03.571Z,66.65
2023-05-18T06:28:53.593Z,66.64
2023-05-18T06:32:31.471Z,66.70
2023-05-18T06:35:59.210Z,66.60
2023-05-18T06:39:26.684Z,66.45
2023-05-18T06:42:53.461Z,66.43
2023-05-18T06:46:41.735Z,66.35
2023-05-18T06:50:15.440Z,66.14
2023-05-18T06:53:42.737Z,66.14
2023-05-18T06:57:11.088Z,66.10
2023-05-18T07:00:39.375Z,66.02
2023-05-18T07:04:08.167Z,66.02
2023-05-18T07:07:34.883Z,65.81
2023-05-18T07:11:02.769Z,65.74
2023-05-18T07:14:29.644Z,65.68
2023-05-18T07:17:58.087Z,65.54
2023-05-18T07:21:25.156Z,65.52
2023-05-18T07:24:52.546Z,65.56
2023-05-18T07:28:19.515Z,65.37
2023-05-18T07:31:46.613Z,65.21
2023-05-18T07:35:13.464Z,65.13
2023-05-18T07:38:40.376Z,64.84
2023-05-18T07:42:08.284Z,64.65
2023-05-18T07:45:35.738Z,64.55
2023-05-18T07:49:04.841Z,64.64
2023-05-18T07:52:32.173Z,64.47
2023-05-18T07:55:59.334Z,64.37
2023-05-18T07:59:25.860Z,64.02
2023-05-18T08:02:53.398Z,63.65
2023-05-18T08:06:20.773Z,63.82
2023-05-18T08:09:47.938Z,63.61
2023-05-18T08:13:15.513Z,63.70
2023-05-18T08:16:42.982Z,63.67
2023-05-18T08:20:12.855Z,63.27
2023-05-18T08:23:40.348Z,63.13
2023-05-18T08:27:10.277Z,62.72
2023-05-18T08:30:37.181Z,62.63
2023-05-18T08:34:04.134Z,62.52
2023-05-18T08:37:32.517Z,62.98
2023-05-18T08:41:09.792Z,62.99
2023-05-18T08:44:45.934Z,62.78
2023-05-18T08:48:14.871Z,62.77
2023-05-18T08:51:47.514Z,62.38
2023-05-18T08:55:16.792Z,62.41
2023-05-18T08:58:50.151Z,62.45
2023-05-18T09:02:15.947Z,62.36
2023-05-18T09:05:44.246Z,62.08
2023-05-18T09:09:11.400Z,61.93
2023-05-18T09:12:40.314Z,61.90
2023-05-18T09:16:08.385Z,62.00
2023-05-18T09:19:35.474Z,61.64
2023-05-18T09:23:02.801Z,61.48
2023-05-18T09:26:29.719Z,61.41
2023-05-18T09:29:58.031Z,61.32
2023-05-18T09:33:25.285Z,61.03
2023-05-18T09:36:54.288Z,60.85
2023-05-18T09:40:29.456Z,60.33
2023-05-18T09:43:57.995Z,60.35
2023-05-18T09:47:29.076Z,59.82
2023-05-18T09:50:55.973Z,59.51
2023-05-18T09:54:24.442Z,59.92
2023-05-18T09:57:52.080Z,60.01
2023-05-18T10:01:19.163Z,59.93
2023-05-18T10:04:48.435Z,59.56
2023-05-18T10:08:17.969Z,59.48
2023-05-18T10:11:45.219Z,59.24
2023-05-18T10:15:18.401Z,59.44
2023-05-18T10:18:47.413Z,59.29
2023-05-18T10:22:17.185Z,59.34
2023-05-18T10:25:47.089Z,59.07
2023-05-18T10:29:14.854Z,58.57
2023-05-18T10:32:44.161Z,58.15
2023-05-18T10:36:13.032Z,58.41
2023-05-18T10:39:41.414Z,58.31
2023-05-18T10:43:09.717Z,58.17
2023-05-18T10:46:38.592Z,58.13
2023-05-18T10:50:08.396Z,58.02
2023-05-18T10:53:36.960Z,57.81
2023-05-18T10:57:03.965Z,57.56
2023-05-18T11:00:32.218Z,57.31
2023-05-18T11:04:03.394Z,57.24
2023-05-18T11:07:31.785Z,56.66
2023-05-18T11:11:08.053Z,56.68
2023-05-18T11:14:35.806Z,56.67
2023-05-18T11:49:29.216Z,54.83
2023-05-18T11:52:53.561Z,54.55
2023-05-18T11:56:17.232Z,54.57
2023-05-18T11:59:42.804Z,54.37
2023-05-18T12:03:08.288Z,54.20
2023-05-18T12:06:32.320Z,54.22
2023-05-18T12:10:03.703Z,54.35
2023-05-18T12:13:29.085Z,54.07
2023-05-18T12:16:53.881Z,53.85
2023-05-18T12:20:19.053Z,53.30
2023-05-18T12:23:42.347Z,53.37
2023-05-18T12:27:08.885Z,53.45
2023-05-18T12:30:35.016Z,53.42
2023-05-18T12:34:01.602Z,52.45
2023-05-18T12:37:34.291Z,52.32
2023-05-18T12:41:01.732Z,52.04
2023-05-18T12:44:25.575Z,52.52
2023-05-18T12:47:53.877Z,52.24
2023-05-18T12:51:20.680Z,52.14
2023-05-18T12:54:54.761Z,51.92
2023-05-18T12:58:23.724Z,51.30
2023-05-18T13:01:49.035Z,50.97
2023-05-18T13:05:14.518Z,50.49
2023-05-18T13:08:38.499Z,50.51
2023-05-18T13:12:07.468Z,50.51
2023-05-18T13:15:36.135Z,50.13
2023-05-18T13:19:02.464Z,49.86
2023-05-18T13:22:26.276Z,49.63
2023-05-18T13:25:51.673Z,49.84
2023-05-18T13:29:15.309Z,49.60
2023-05-18T13:32:38.954Z,49.50
2023-05-18T13:36:02.725Z,49.34
2023-05-18T13:39:26.372Z,49.11
2023-05-18T13:42:49.661Z,48.87
2023-05-18T13:46:13.010Z,48.58
2023-05-18T13:49:36.680Z,48.25
2023-05-18T13:53:01.094Z,48.03
2023-05-18T13:56:24.605Z,47.87
2023-05-18T13:59:48.035Z,47.72
2023-05-18T14:03:11.705Z,47.85
2023-05-18T14:06:35.684Z,47.45
2023-05-18T14:09:58.976Z,47.06
2023-05-18T14:13:22.469Z,46.78
2023-05-18T14:16:45.768Z,46.49
2023-05-18T14:20:11.028Z,46.44
2023-05-18T14:23:34.319Z,46.51
2023-05-18T14:26:57.737Z,46.18
2023-05-18T14:30:21.335Z,46.03
2023-05-18T14:33:44.658Z,45.68
2023-05-18T14:37:08.503Z,45.68
2023-05-18T14:40:32.089Z,45.57
2023-05-18T14:43:56.214Z,45.44
2023-05-18T14:47:19.633Z,45.40
2023-05-18T14:50:43.362Z,44.98
2023-05-18T14:54:07.092Z,44.60
2023-05-18T14:57:31.157Z,44.93
2023-05-18T15:00:55.721Z,44.61
2023-05-18T15:04:21.399Z,44.44
2023-05-18T15:07:44.977Z,44.40
2023-05-18T15:11:08.726Z,44.17
2023-05-18T15:14:32.618Z,44.19
2023-05-18T15:17:56.499Z,44.29
2023-05-18T15:21:19.954Z,44.06
2023-05-18T15:24:45.690Z,43.93
2023-05-18T15:28:10.838Z,43.88
2023-05-18T15:31:37.320Z,43.71
2023-05-18T15:35:01.079Z,43.79
2023-05-18T15:38:25.416Z,43.64
2023-05-18T15:41:49.490Z,43.72
2023-05-18T15:45:13.697Z,43.79
2023-05-18T15:48:37.542Z,43.70
2023-05-18T15:52:05.155Z,43.59
2023-05-18T15:55:29.043Z,43.51
2023-05-18T15:58:52.142Z,43.29
2023-05-18T16:02:18.545Z,43.32
2023-05-18T16:05:43.091Z,43.39
2023-05-18T16:09:09.081Z,43.52
2023-05-18T16:12:32.762Z,43.42
2023-05-18T16:15:54.866Z,43.40
2023-05-18T16:19:18.236Z,43.43
2023-05-18T16:22:42.430Z,43.39
2023-05-18T16:26:06.047Z,43.56
2023-05-18T16:29:29.299Z,43.46
2023-05-18T16:32:53.688Z,43.51
2023-05-18T16:36:18.082Z,43.67
2023-05-18T16:39:42.120Z,43.58
2023-05-18T16:43:06.440Z,43.57
2023-05-18T16:46:29.809Z,43.63
2023-05-18T16:49:53.812Z,43.79
2023-05-18T16:53:17.171Z,43.74
2023-05-18T16:56:40.617Z,43.74
2023-05-18T17:00:09.511Z,43.83
2023-05-18T17:03:36.311Z,43.98
2023-05-18T17:07:01.909Z,43.97
2023-05-18T17:10:27.022Z,44.13
2023-05-18T17:13:52.509Z,44.20
2023-05-18T17:17:16.210Z,44.35
2023-05-18T17:20:39.449Z,44.51
2023-05-18T17:24:03.042Z,44.49
2023-05-18T17:27:26.577Z,44.58
2023-05-18T17:30:52.236Z,44.58
2023-05-18T17:34:15.752Z,44.70
2023-05-18T17:37:46.048Z,44.91
2023-05-18T17:41:10.954Z,45.02
2023-05-18T17:44:37.003Z,44.96
2023-05-18T17:48:01.128Z,45.08
2023-05-18T17:51:25.934Z,45.28
2023-05-18T17:54:51.772Z,45.30
2023-05-18T17:58:17.858Z,45.54
2023-05-18T18:01:42.582Z,45.65
2023-05-18T18:05:06.546Z,45.70
2023-05-18T18:08:30.183Z,45.84
2023-05-18T18:11:56.622Z,46.00
2023-05-18T18:15:22.167Z,46.13
2023-05-18T18:18:46.028Z,46.09
2023-05-18T18:22:10.626Z,46.33
2023-05-18T18:25:34.765Z,46.35
2023-05-18T18:29:01.342Z,46.41
2023-05-18T18:32:25.081Z,46.52
2023-05-18T18:35:49.867Z,46.77
2023-05-18T18:39:16.787Z,46.78
2023-05-18T18:42:41.291Z,46.98
2023-05-18T18:46:05.143Z,46.99
2023-05-18T18:49:30.337Z,47.23
2023-05-18T18:52:53.924Z,47.25
2023-05-18T18:56:21.731Z,47.30
2023-05-18T18:59:46.821Z,47.42
2023-05-18T19:03:10.135Z,47.71
2023-05-18T19:06:36.495Z,47.69
2023-05-18T19:10:01.803Z,47.71
2023-05-18T19:13:25.641Z,47.81
2023-05-18T19:16:49.829Z,47.99
2023-05-18T19:20:13.929Z,47.90
2023-05-18T19:23:39.174Z,48.04
2023-05-18T19:27:03.631Z,48.20
2023-05-18T19:30:29.121Z,48.29
2023-05-18T19:33:55.529Z,48.46
2023-05-18T19:37:21.119Z,48.51
2023-05-18T19:40:47.068Z,48.80
2023-05-18T19:44:16.734Z,48.93
2023-05-18T19:47:41.275Z,48.85
2023-05-18T19:51:06.967Z,49.10
2023-05-18T19:54:32.557Z,49.23
2023-05-18T19:57:58.102Z,49.18
2023-05-18T20:01:24.884Z,49.37
2023-05-18T20:04:49.802Z,49.30
2023-05-18T20:08:14.656Z,49.34
2023-05-18T20:11:39.097Z,49.55
2023-05-18T20:15:03.728Z,49.63
2023-05-18T20:18:28.743Z,49.91
2023-05-18T20:21:53.852Z,49.85
2023-05-18T20:25:20.079Z,49.91
2023-05-18T20:28:43.411Z,49.92
2023-05-18T20:32:09.391Z,50.03
2023-05-18T20:35:34.206Z,50.18
2023-05-18T20:39:02.066Z,50.19
2023-05-18T20:42:38.237Z,50.29
2023-05-18T20:46:04.261Z,50.26
2023-05-18T20:49:28.033Z,50.28
2023-05-18T20:52:52.787Z,50.47
2023-05-18T20:56:17.733Z,50.50
2023-05-18T20:59:43.649Z,50.67
2023-05-18T21:03:08.020Z,50.65
2023-05-18T21:06:40.496Z,50.85
2023-05-18T21:10:11.528Z,50.77
2023-05-18T21:13:36.627Z,50.95
2023-05-18T21:17:01.220Z,51.18
2023-05-18T21:20:26.320Z,51.17
2023-05-18T21:23:49.907Z,51.41
2023-05-18T21:27:13.683Z,51.46
2023-05-18T21:30:37.741Z,51.55
2023-05-18T21:34:04.909Z,51.55
2023-05-18T21:37:30.944Z,51.50
2023-05-18T21:40:56.232Z,51.70
2023-05-18T21:44:20.833Z,51.72
2023-05-18T21:47:45.826Z,51.63
2023-05-18T21:51:18.557Z,51.87
2023-05-18T21:54:43.643Z,51.84
2023-05-18T21:58:07.079Z,51.98
2023-05-18T22:01:31.190Z,52.08
2023-05-18T22:04:55.025Z,52.37
2023-05-18T22:08:19.714Z,52.44
2023-05-18T22:11:43.929Z,52.39
2023-05-18T22:15:10.524Z,52.61
2023-05-18T22:18:36.997Z,52.76
2023-05-18T22:22:00.968Z,52.83
2023-05-18T22:25:24.877Z,52.84
2023-05-18T22:28:48.626Z,52.87
2023-05-18T22:32:12.554Z,52.98
2023-05-18T22:35:36.750Z,53.01
2023-05-18T22:39:00.343Z,53.02
2023-05-18T22:42:23.913Z,53.07
2023-05-18T22:45:47.941Z,53.22
2023-05-18T22:49:11.686Z,53.29
2023-05-18T22:52:36.369Z,53.37
2023-05-18T22:55:59.986Z,53.40
2023-05-18T22:59:23.623Z,53.46
2023-05-18T23:02:46.819Z,53.68
2023-05-18T23:06:09.137Z,53.79
2023-05-18T23:09:32.869Z,53.83
2023-05-18T23:12:57.869Z,53.95
2023-05-18T23:16:22.109Z,53.97
2023-05-18T23:19:47.885Z,54.12
2023-05-18T23:23:11.310Z,54.31
2023-05-18T23:26:34.082Z,54.18
2023-05-18T23:29:57.488Z,54.60
2023-05-18T23:33:22.291Z,54.58
2023-05-18T23:36:48.097Z,54.65
2023-05-18T23:40:16.896Z,54.84
2023-05-18T23:43:41.789Z,54.55
2023-05-18T23:47:06.204Z,54.95
2023-05-18T23:50:30.965Z,55.01
2023-05-18T23:53:55.930Z,55.07
2023-05-18T23:57:20.592Z,55.07
